Terminal Aerodrome Forecast
Issued by NWS Atlanta, GA

Home | Current Version | Previous Version | Text Only | Print | Product List | Glossary On
Versions: 1 2 3 4 5 6 7 8 9 10 11 12 13 14 15 16 17 18 19 20 21 22 23 24 25 26 27 28 29 30 31 32 33 34 35 36 37 38 39 40 41 42 43 44
000
FTUS42 KFFC 190801 AAA
TAFATL
TAF AMD
KATL 190801Z 1908/2012 13005KT 6SM -RA BKN004 OVC012
      TEMPO 1908/1910 -SHRA SCT004 OVC012
     FM191000 13006KT 4SM -SHRA BR OVC008
      TEMPO 1914/1916 4SM -TSRA BKN010CB
     FM191600 19010G18KT 4SM -SHRA BKN012 OVC025
     FM191800 21012G20KT P6SM BKN015
     FM192100 22010G16KT P6SM VCSH BKN030
     FM200000 23007KT P6SM VCSH BKN025=

USA.gov is the U.S. government's official web portal to all federal, state and local government web resources and services.